Time;durP1;ratioP1;P1;durP2;ratioP2;P2;SDS_P1;SDS_P2;PMS_P1;PMS_P2;Temp;Humidity;BMP_temperature;BMP_pressure;BME280_temperature;BME280_humidity;BME280_pressure;Samples;Min_cycle;Max_cycle;Signal;HPM_P1;HPM_P2
2022/08/14 00:02:03;;;;;;;8.30;6.77;;;23.70;99.90;;;;;;6132026;23;20414;-93
2022/08/14 00:04:35;;;;;;;8.87;6.67;;;23.70;99.90;;;;;;6156376;23;20204;-92
2022/08/14 00:07:01;;;;;;;8.60;7.07;;;23.70;99.90;;;;;;6147321;23;20506;-93
2022/08/14 00:09:27;;;;;;;7.70;6.90;;;23.70;99.90;;;;;;6156779;23;20556;-93
2022/08/14 00:11:53;;;;;;;7.53;6.57;;;23.70;99.90;;;;;;6157233;23;20390;-92
2022/08/14 00:14:19;;;;;;;9.57;6.93;;;23.70;99.90;;;;;;6157099;23;20193;-92
2022/08/14 00:16:45;;;;;;;10.80;7.63;;;23.70;99.90;;;;;;6156834;23;20408;-92
2022/08/14 00:19:11;;;;;;;8.27;6.43;;;23.70;99.90;;;;;;6156606;23;20475;-92
2022/08/14 00:21:38;;;;;;;7.17;6.50;;;23.70;99.90;;;;;;6159741;23;20640;-93
2022/08/14 00:24:04;;;;;;;7.03;6.30;;;23.70;99.90;;;;;;6157712;23;20438;-94
2022/08/14 00:26:30;;;;;;;6.70;6.10;;;23.70;99.90;;;;;;6159007;23;20403;-93
2022/08/14 00:28:55;;;;;;;7.30;6.60;;;23.70;99.90;;;;;;6158255;23;20405;-93
2022/08/14 00:31:22;;;;;;;7.20;6.50;;;23.70;99.90;;;;;;6160188;23;20219;-93
2022/08/14 00:33:48;;;;;;;7.20;5.80;;;23.70;99.90;;;;;;6159898;23;20172;-92
2022/08/14 00:36:13;;;;;;;8.30;6.60;;;23.70;99.90;;;;;;6159593;23;20450;-93
2022/08/14 00:38:39;;;;;;;6.13;5.53;;;23.70;99.90;;;;;;6159390;23;20540;-93
2022/08/14 00:41:07;;;;;;;8.57;6.90;;;23.70;99.90;;;;;;6166534;23;20177;-93
2022/08/14 00:43:34;;;;;;;6.87;6.17;;;23.70;99.90;;;;;;6167233;23;20157;-93
2022/08/14 00:46:06;;;;;;;7.50;6.80;;;23.70;99.90;;;;;;6165859;23;20422;-93
2022/08/14 00:48:32;;;;;;;7.13;6.43;;;23.60;99.90;;;;;;6163152;23;20478;-92
2022/08/14 00:50:58;;;;;;;7.77;6.20;;;23.60;99.90;;;;;;6158189;23;20895;-92
2022/08/14 00:53:24;;;;;;;7.30;6.40;;;23.60;99.90;;;;;;6158520;23;20382;-94
2022/08/14 00:55:54;;;;;;;7.17;6.03;;;23.60;99.90;;;;;;6159713;23;20942;-93
2022/08/14 00:58:31;;;;;;;7.63;6.93;;;23.60;99.90;;;;;;6158292;23;20855;-92
2022/08/14 01:01:02;;;;;;;7.03;6.43;;;23.60;99.90;;;;;;6157831;23;20417;-93
2022/08/14 01:03:28;;;;;;;7.77;7.07;;;23.50;99.90;;;;;;6159586;23;20382;-93
2022/08/14 01:05:55;;;;;;;8.60;6.27;;;23.50;99.90;;;;;;6157662;23;20449;-92
2022/08/14 01:08:24;;;;;;;7.10;6.40;;;23.50;99.90;;;;;;6159171;23;20379;-93
2022/08/14 01:10:50;;;;;;;7.40;6.70;;;23.50;99.90;;;;;;6158192;23;20421;-93
2022/08/14 01:13:27;;;;;;;8.07;7.37;;;23.50;99.90;;;;;;6158736;23;20944;-94
2022/08/14 01:15:56;;;;;;;9.17;7.20;;;23.50;99.90;;;;;;6159318;23;20461;-92
2022/08/14 01:21:12;;;;;;;7.30;6.20;;;23.50;99.90;;;;;;6160402;23;20742;-93
2022/08/14 01:23:52;;;;;;;7.33;6.73;;;23.50;99.90;;;;;;6160571;23;20379;-93
2022/08/14 01:26:20;;;;;;;7.63;6.83;;;23.50;99.90;;;;;;6158550;23;20421;-92
2022/08/14 01:28:47;;;;;;;8.83;6.30;;;23.40;99.90;;;;;;6160260;23;20492;-93
2022/08/14 01:31:16;;;;;;;7.80;7.00;;;23.40;99.90;;;;;;6160778;23;20417;-93
2022/08/14 01:33:45;;;;;;;7.23;6.53;;;23.40;99.90;;;;;;6159817;23;20394;-92
2022/08/14 01:36:12;;;;;;;7.47;6.77;;;23.40;99.90;;;;;;6157718;23;20489;-93
2022/08/14 01:38:40;;;;;;;9.50;7.03;;;23.40;99.90;;;;;;6157562;23;20413;-92
2022/08/14 01:41:12;;;;;;;7.60;6.83;;;23.40;99.90;;;;;;6157615;23;20469;-93
2022/08/14 01:43:47;;;;;;;7.10;6.40;;;23.40;99.90;;;;;;6156853;23;20468;-93
2022/08/14 01:46:15;;;;;;;7.30;6.03;;;23.40;99.90;;;;;;6158903;23;20420;-92
2022/08/14 01:48:43;;;;;;;7.73;6.93;;;23.40;99.90;;;;;;6158978;23;20380;-92
2022/08/14 01:51:11;;;;;;;6.50;5.53;;;23.40;99.90;;;;;;6157682;23;20421;-93
2022/08/14 01:53:42;;;;;;;9.00;6.57;;;23.40;99.90;;;;;;6158172;23;20709;-92
2022/08/14 01:56:07;;;;;;;7.17;6.50;;;23.40;99.90;;;;;;6159712;23;20445;-93
2022/08/14 01:58:33;;;;;;;7.73;6.40;;;23.40;99.90;;;;;;6158545;23;20397;-92
2022/08/14 02:00:59;;;;;;;6.60;5.90;;;23.40;99.90;;;;;;6160337;23;20179;-92
2022/08/14 02:03:29;;;;;;;8.57;7.40;;;23.40;99.90;;;;;;6158301;23;20167;-93
2022/08/14 02:05:58;;;;;;;7.20;6.57;;;23.30;99.90;;;;;;6160469;23;20203;-93
2022/08/14 02:08:28;;;;;;;9.40;6.13;;;23.30;99.90;;;;;;6161345;23;20413;-92
2022/08/14 02:11:15;;;;;;;8.37;6.57;;;23.40;99.90;;;;;;6158453;23;20433;-92
2022/08/14 02:13:42;;;;;;;6.97;6.27;;;23.40;99.90;;;;;;6159676;23;20441;-92
2022/08/14 02:16:09;;;;;;;7.03;5.90;;;23.40;99.90;;;;;;6161251;23;20511;-92
2022/08/14 02:18:35;;;;;;;7.90;7.10;;;23.40;99.90;;;;;;6164746;23;20382;-93
2022/08/14 02:21:03;;;;;;;7.00;5.57;;;23.40;99.90;;;;;;6157229;23;20828;-94
2022/08/14 02:23:29;;;;;;;7.00;6.30;;;23.40;99.90;;;;;;6157020;23;20167;-93
2022/08/14 02:25:58;;;;;;;7.43;6.73;;;23.40;99.90;;;;;;6158721;23;20901;-92
2022/08/14 02:28:25;;;;;;;8.23;7.47;;;23.40;99.90;;;;;;6157070;23;20856;-93
2022/08/14 02:30:50;;;;;;;8.50;7.60;;;23.40;99.90;;;;;;6158465;23;20420;-92
2022/08/14 02:33:17;;;;;;;7.73;6.70;;;23.40;99.90;;;;;;6157016;23;20412;-92
2022/08/14 02:35:43;;;;;;;9.23;6.40;;;23.40;99.90;;;;;;6157614;23;20215;-93
2022/08/14 02:38:09;;;;;;;7.37;6.67;;;23.30;99.90;;;;;;6157060;23;20378;-93
2022/08/14 02:40:36;;;;;;;7.23;6.60;;;23.30;99.90;;;;;;6157271;23;20780;-92
2022/08/14 02:43:03;;;;;;;10.20;7.30;;;23.30;99.90;;;;;;6158147;23;20409;-93
2022/08/14 02:45:31;;;;;;;7.27;6.57;;;23.30;99.90;;;;;;6157883;23;20902;-92
2022/08/14 02:47:57;;;;;;;7.43;6.63;;;23.20;99.90;;;;;;6157035;23;20433;-92
2022/08/14 02:50:23;;;;;;;8.07;6.87;;;23.20;99.90;;;;;;6157083;23;20410;-92
2022/08/14 02:52:49;;;;;;;7.90;7.20;;;23.20;99.90;;;;;;6157546;23;20159;-92
2022/08/14 02:55:14;;;;;;;10.47;6.93;;;23.20;99.90;;;;;;6156859;23;20192;-92
2022/08/14 02:57:42;;;;;;;8.00;7.10;;;23.20;99.90;;;;;;6159304;23;20160;-92
2022/08/14 03:00:11;;;;;;;8.30;6.67;;;23.20;99.90;;;;;;6157655;23;20182;-92
2022/08/14 03:02:37;;;;;;;7.00;6.30;;;23.20;99.90;;;;;;6157763;23;20386;-92
2022/08/14 03:05:03;;;;;;;7.97;6.20;;;23.20;99.90;;;;;;6161811;23;20896;-93
2022/08/14 03:07:28;;;;;;;7.10;6.40;;;23.20;99.90;;;;;;6156520;23;20537;-93
2022/08/14 03:09:54;;;;;;;8.20;6.87;;;23.20;99.90;;;;;;6156464;23;20408;-93
2022/08/14 03:12:20;;;;;;;6.70;6.07;;;23.20;99.90;;;;;;6156981;23;20405;-93
2022/08/14 03:14:51;;;;;;;7.40;6.70;;;23.20;99.90;;;;;;6156581;23;20201;-93
2022/08/14 03:17:17;;;;;;;7.27;6.57;;;23.20;99.90;;;;;;6158811;23;20387;-94
2022/08/14 03:19:42;;;;;;;8.33;7.53;;;23.30;99.90;;;;;;6158233;23;20396;-92
2022/08/14 03:22:08;;;;;;;7.60;6.73;;;23.30;99.90;;;;;;6156804;23;20394;-93
2022/08/14 03:24:35;;;;;;;8.10;6.70;;;23.30;99.90;;;;;;6157153;23;20485;-93
2022/08/14 03:27:01;;;;;;;8.10;6.70;;;23.30;99.90;;;;;;6155633;23;20456;-92
2022/08/14 03:29:27;;;;;;;7.57;6.80;;;23.30;99.90;;;;;;6156937;23;20488;-92
2022/08/14 03:31:54;;;;;;;8.47;7.60;;;23.20;99.90;;;;;;6156943;23;20703;-93
2022/08/14 03:34:23;;;;;;;8.40;6.97;;;23.20;99.90;;;;;;6157443;23;20427;-93
2022/08/14 03:36:57;;;;;;;7.80;6.60;;;23.10;99.90;;;;;;6157384;23;20393;-93
2022/08/14 03:39:22;;;;;;;9.23;7.33;;;23.00;99.90;;;;;;6157357;23;20409;-93
2022/08/14 03:41:51;;;;;;;8.33;7.47;;;22.90;99.90;;;;;;6157806;23;20484;-93
2022/08/14 03:44:16;;;;;;;8.10;7.30;;;22.90;99.90;;;;;;6161954;23;20487;-93
2022/08/14 03:46:42;;;;;;;7.97;7.10;;;22.90;99.90;;;;;;6165772;23;20405;-93
2022/08/14 03:49:08;;;;;;;10.23;8.37;;;22.90;99.90;;;;;;6156583;23;20162;-93
2022/08/14 03:51:35;;;;;;;7.90;7.10;;;22.90;99.90;;;;;;6156983;23;20397;-93
2022/08/14 03:54:11;;;;;;;8.10;7.20;;;22.90;99.90;;;;;;6156463;23;20426;-93
2022/08/14 03:56:39;;;;;;;7.93;7.13;;;22.90;99.90;;;;;;6157327;23;20493;-93
2022/08/14 03:59:08;;;;;;;9.00;6.73;;;22.90;99.90;;;;;;6156279;23;20373;-93
2022/08/14 04:01:34;;;;;;;8.70;7.60;;;22.90;99.90;;;;;;6157234;23;20402;-93
2022/08/14 04:04:05;;;;;;;7.70;6.93;;;22.90;99.90;;;;;;6156065;23;20417;-93
2022/08/14 04:06:36;;;;;;;8.57;6.97;;;22.90;99.90;;;;;;6157235;23;20199;-93
2022/08/14 04:09:06;;;;;;;7.20;6.43;;;23.00;99.90;;;;;;6158892;23;20738;-93
2022/08/14 04:11:33;;;;;;;8.30;7.47;;;23.00;99.90;;;;;;6159203;23;20405;-93
2022/08/14 04:14:00;;;;;;;8.70;7.70;;;23.00;99.90;;;;;;6158905;23;20456;-93
2022/08/14 04:16:25;;;;;;;9.27;8.00;;;23.00;99.90;;;;;;6159203;23;20437;-92
2022/08/14 04:18:55;;;;;;;8.17;7.20;;;23.00;99.90;;;;;;6159731;23;20401;-92
2022/08/14 04:21:23;;;;;;;8.50;7.47;;;23.00;99.90;;;;;;6159300;23;20251;-93
2022/08/14 04:23:50;;;;;;;8.07;6.70;;;23.00;99.90;;;;;;6159580;23;20473;-93
2022/08/14 04:26:20;;;;;;;8.90;7.10;;;23.00;99.90;;;;;;6162199;23;20417;-93
2022/08/14 04:28:48;;;;;;;8.10;7.30;;;23.00;99.90;;;;;;6159914;23;20472;-93
2022/08/14 04:31:14;;;;;;;10.57;7.60;;;23.00;99.90;;;;;;6159658;23;20429;-93
2022/08/14 04:33:40;;;;;;;8.77;7.87;;;23.00;99.90;;;;;;6160533;23;20436;-93
2022/08/14 04:36:07;;;;;;;9.10;7.50;;;23.00;99.90;;;;;;6159651;23;20815;-93
2022/08/14 04:44:01;;;;;;;9.60;7.40;;;23.00;99.90;;;;;;6168705;23;20420;-93
2022/08/14 04:46:27;;;;;;;9.23;7.67;;;23.00;99.90;;;;;;6160836;23;20398;-93
2022/08/14 04:48:54;;;;;;;9.60;7.67;;;23.00;99.90;;;;;;6159214;23;20673;-92
2022/08/14 04:51:26;;;;;;;8.80;7.20;;;23.00;99.90;;;;;;6159301;23;20410;-93
2022/08/14 04:53:53;;;;;;;7.90;7.20;;;22.90;99.90;;;;;;6160995;23;20391;-92
2022/08/14 04:56:22;;;;;;;8.50;7.60;;;22.90;99.90;;;;;;6158702;23;20869;-93
2022/08/14 04:58:50;;;;;;;8.00;7.20;;;22.90;99.90;;;;;;6158912;23;20387;-93
2022/08/14 05:01:16;;;;;;;8.83;7.67;;;22.90;99.90;;;;;;6160009;23;20410;-92
2022/08/14 05:03:42;;;;;;;8.30;7.50;;;23.00;99.90;;;;;;6160145;23;20800;-93
2022/08/14 05:06:10;;;;;;;8.70;7.80;;;23.00;99.90;;;;;;6158484;23;20505;-92
2022/08/14 05:08:37;;;;;;;9.03;7.67;;;23.00;99.90;;;;;;6158975;23;20962;-93
2022/08/14 05:11:06;;;;;;;8.97;7.70;;;23.00;99.90;;;;;;6159043;23;20409;-92
2022/08/14 05:13:35;;;;;;;9.57;8.00;;;23.00;99.90;;;;;;6159490;23;20384;-92
2022/08/14 05:16:02;;;;;;;8.23;7.23;;;23.00;99.90;;;;;;6159714;23;20544;-93
2022/08/14 05:18:34;;;;;;;10.70;8.10;;;23.00;99.90;;;;;;6159169;23;20384;-93
2022/08/14 05:21:04;;;;;;;8.50;7.60;;;23.00;99.90;;;;;;6159538;23;20430;-93
2022/08/14 05:23:31;;;;;;;9.97;7.87;;;23.00;99.90;;;;;;6167300;23;20501;-92
2022/08/14 05:26:02;;;;;;;8.10;7.33;;;23.00;99.90;;;;;;6157937;23;20413;-93
2022/08/14 05:28:30;;;;;;;9.27;7.67;;;23.00;99.90;;;;;;6158133;23;20378;-92
2022/08/14 05:31:00;;;;;;;9.00;8.10;;;23.00;99.90;;;;;;6158851;23;20408;-93
2022/08/14 05:33:28;;;;;;;10.60;7.90;;;23.00;99.90;;;;;;6157517;23;20436;-93
2022/08/14 05:35:59;;;;;;;8.60;7.40;;;23.00;99.90;;;;;;6157492;23;20840;-92
2022/08/14 05:38:32;;;;;;;9.73;8.47;;;23.00;99.90;;;;;;6157799;23;20382;-93
2022/08/14 05:40:59;;;;;;;9.77;8.37;;;23.10;99.90;;;;;;6158615;23;20794;-92
2022/08/14 05:43:25;;;;;;;8.77;7.87;;;23.10;99.90;;;;;;6157836;23;20382;-92
2022/08/14 05:45:51;;;;;;;8.30;7.40;;;23.10;99.90;;;;;;6157590;23;20421;-93
2022/08/14 05:48:16;;;;;;;9.30;7.53;;;23.10;99.90;;;;;;6157966;23;20262;-93
2022/08/14 05:50:42;;;;;;;8.80;7.10;;;23.10;99.90;;;;;;6157593;23;20634;-93
2022/08/14 05:53:08;;;;;;;8.20;7.40;;;23.10;99.90;;;;;;6158997;23;20152;-92
2022/08/14 05:55:34;;;;;;;8.40;7.50;;;23.10;99.90;;;;;;6157856;23;20774;-93
2022/08/14 05:58:03;;;;;;;9.13;7.80;;;23.20;99.90;;;;;;6157745;23;20179;-93
2022/08/14 06:00:38;;;;;;;8.30;7.40;;;23.20;99.90;;;;;;6159015;23;20246;-94
2022/08/14 06:03:06;;;;;;;8.93;8.03;;;23.20;99.90;;;;;;6158672;23;20416;-92
2022/08/14 06:05:31;;;;;;;12.20;7.40;;;23.20;99.90;;;;;;6158063;23;20410;-93
2022/08/14 06:07:59;;;;;;;8.03;7.23;;;23.20;99.90;;;;;;6133939;23;20468;-93
2022/08/14 06:10:26;;;;;;;10.30;8.70;;;23.30;99.90;;;;;;6135978;23;20178;-92
2022/08/14 06:12:52;;;;;;;9.33;7.97;;;23.30;99.90;;;;;;6141206;23;20355;-92
2022/08/14 06:15:17;;;;;;;8.23;7.50;;;23.30;99.90;;;;;;6138527;23;20449;-93
2022/08/14 06:17:45;;;;;;;9.00;7.27;;;23.40;99.90;;;;;;6145542;23;20162;-93
2022/08/14 06:20:12;;;;;;;8.67;6.93;;;23.40;99.90;;;;;;6138772;23;20236;-93
2022/08/14 06:22:42;;;;;;;8.50;7.60;;;23.40;99.90;;;;;;6132570;23;20922;-93
2022/08/14 06:25:09;;;;;;;10.23;7.77;;;23.50;99.90;;;;;;6132062;23;20411;-93
2022/08/14 06:27:40;;;;;;;9.43;7.80;;;23.50;99.90;;;;;;6132577;23;20408;-93
2022/08/14 06:30:07;;;;;;;10.33;8.27;;;23.50;99.90;;;;;;6132365;23;20411;-92
2022/08/14 06:32:34;;;;;;;11.50;8.37;;;23.50;99.90;;;;;;6132417;23;20416;-92
2022/08/14 06:35:00;;;;;;;7.87;6.80;;;23.60;99.90;;;;;;6132360;23;20942;-93
2022/08/14 06:37:26;;;;;;;9.10;7.53;;;23.70;99.90;;;;;;6132537;23;20401;-93
2022/08/14 06:39:52;;;;;;;10.13;7.93;;;23.70;99.90;;;;;;6132837;23;20971;-93
2022/08/14 06:42:18;;;;;;;8.83;7.83;;;23.80;99.90;;;;;;6133007;23;20915;-93
2022/08/14 06:44:43;;;;;;;9.30;7.87;;;23.80;99.90;;;;;;6132694;23;20399;-93
2022/08/14 06:47:09;;;;;;;10.33;8.13;;;23.90;99.90;;;;;;6132944;23;20164;-92
2022/08/14 06:49:36;;;;;;;9.33;7.87;;;24.00;99.90;;;;;;6133075;23;20626;-93
2022/08/14 06:52:02;;;;;;;14.50;8.43;;;24.00;99.90;;;;;;6133045;23;20496;-94
2022/08/14 06:54:28;;;;;;;11.63;8.53;;;24.00;99.90;;;;;;6132708;23;20427;-93
2022/08/14 06:56:54;;;;;;;11.53;9.63;;;24.10;99.90;;;;;;6133213;23;20407;-92
2022/08/14 06:59:20;;;;;;;18.37;9.10;;;24.20;99.90;;;;;;6133235;23;20446;-93
2022/08/14 07:07:14;;;;;;;10.73;8.70;;;24.40;99.90;;;;;;6160606;23;20433;-93
2022/08/14 07:09:40;;;;;;;11.30;7.90;;;24.40;99.90;;;;;;6143414;23;20414;-94
2022/08/14 07:12:07;;;;;;;11.43;8.90;;;24.40;99.90;;;;;;6144400;23;20404;-93
2022/08/14 07:14:33;;;;;;;13.70;9.60;;;24.50;99.90;;;;;;6136046;23;20628;-93
2022/08/14 07:16:59;;;;;;;9.23;8.17;;;24.50;99.90;;;;;;6160180;23;20412;-93
2022/08/14 07:19:25;;;;;;;10.60;8.40;;;24.60;99.90;;;;;;6158283;23;20244;-93
2022/08/14 07:21:50;;;;;;;9.10;8.00;;;24.60;99.90;;;;;;6131981;23;20196;-93
2022/08/14 07:24:17;;;;;;;11.80;8.40;;;24.70;99.90;;;;;;6132027;23;20176;-93
2022/08/14 07:26:42;;;;;;;10.57;8.30;;;24.70;99.90;;;;;;6156605;23;20210;-93
2022/08/14 07:29:08;;;;;;;11.97;10.00;;;24.70;99.90;;;;;;6156455;23;20868;-93
2022/08/14 07:31:34;;;;;;;10.93;8.77;;;24.80;99.90;;;;;;6132427;23;20166;-93
2022/08/14 07:33:59;;;;;;;10.90;8.47;;;24.80;99.90;;;;;;6158010;23;20519;-94
2022/08/14 07:36:26;;;;;;;10.80;8.33;;;24.90;99.90;;;;;;6132040;23;20239;-93
2022/08/14 07:38:52;;;;;;;12.20;9.37;;;25.00;99.90;;;;;;6156872;23;20297;-92
2022/08/14 07:41:18;;;;;;;9.97;8.33;;;25.00;99.90;;;;;;6132944;23;20420;-92
2022/08/14 07:43:44;;;;;;;13.87;9.30;;;25.10;99.90;;;;;;6132177;23;20206;-92
2022/08/14 07:46:09;;;;;;;10.90;8.60;;;25.10;99.90;;;;;;6132866;23;20187;-93
2022/08/14 07:48:42;;;;;;;10.80;9.13;;;25.20;99.90;;;;;;6134331;23;20165;-93
2022/08/14 07:51:08;;;;;;;10.00;8.83;;;25.20;99.90;;;;;;6134258;23;20248;-93
2022/08/14 07:53:35;;;;;;;13.47;9.13;;;25.20;99.90;;;;;;6134458;23;20393;-93
2022/08/14 07:56:01;;;;;;;9.10;7.40;;;25.20;99.90;;;;;;6134111;23;20464;-93
2022/08/14 07:58:26;;;;;;;13.03;8.33;;;25.20;99.90;;;;;;6134303;23;20384;-94
2022/08/14 08:00:56;;;;;;;11.17;8.93;;;25.30;99.90;;;;;;6140553;23;20987;-94
2022/08/14 08:03:24;;;;;;;9.67;8.20;;;25.30;99.90;;;;;;6163562;23;20155;-93
2022/08/14 08:05:49;;;;;;;11.37;9.20;;;25.30;99.90;;;;;;6146148;23;20440;-92
2022/08/14 08:08:16;;;;;;;12.67;9.80;;;25.30;99.90;;;;;;6156419;23;20403;-93
2022/08/14 08:10:43;;;;;;;12.07;8.90;;;25.40;99.90;;;;;;6156188;23;20214;-93
2022/08/14 08:13:11;;;;;;;11.47;8.23;;;25.40;99.90;;;;;;6156747;23;20381;-93
2022/08/14 08:15:43;;;;;;;11.87;9.00;;;25.40;99.90;;;;;;6157039;23;20504;-93
2022/08/14 08:18:12;;;;;;;11.87;8.90;;;25.50;99.90;;;;;;6157242;23;20405;-93
2022/08/14 08:20:47;;;;;;;10.87;8.70;;;25.50;99.90;;;;;;6156624;23;20456;-93
2022/08/14 08:23:15;;;;;;;10.43;8.37;;;25.50;99.90;;;;;;6156756;23;20385;-93
2022/08/14 08:25:43;;;;;;;13.30;9.10;;;25.50;99.90;;;;;;6156452;23;20459;-93
2022/08/14 08:28:17;;;;;;;12.20;9.00;;;25.50;99.90;;;;;;6157157;23;20416;-93
2022/08/14 08:30:51;;;;;;;13.50;10.37;;;25.50;99.90;;;;;;6158152;23;20420;-93
2022/08/14 08:33:22;;;;;;;13.10;9.80;;;25.50;99.90;;;;;;6159510;23;20369;-93
2022/08/14 08:35:49;;;;;;;12.37;9.00;;;25.50;99.90;;;;;;6158094;23;20456;-93
2022/08/14 08:38:19;;;;;;;12.53;9.03;;;25.50;99.90;;;;;;6157526;23;20404;-93
2022/08/14 08:40:49;;;;;;;12.60;9.67;;;25.60;99.90;;;;;;6157624;23;20496;-94
2022/08/14 08:43:22;;;;;;;9.90;8.67;;;25.60;99.90;;;;;;6163127;23;20354;-93
2022/08/14 08:45:57;;;;;;;11.80;9.20;;;25.60;99.90;;;;;;6156807;23;20425;-93
2022/08/14 08:48:30;;;;;;;13.37;9.20;;;25.70;99.90;;;;;;6156188;23;20912;-93
2022/08/14 08:50:57;;;;;;;11.83;9.03;;;25.70;99.90;;;;;;6156267;23;20421;-93
2022/08/14 08:53:30;;;;;;;12.90;10.20;;;25.80;99.90;;;;;;6160900;23;20523;-93
2022/08/14 08:55:56;;;;;;;10.93;8.73;;;25.80;99.90;;;;;;6157431;23;20826;-93
2022/08/14 08:58:22;;;;;;;11.37;9.00;;;25.90;99.90;;;;;;6158651;23;20462;-93
2022/08/14 09:00:54;;;;;;;12.37;9.00;;;25.90;99.90;;;;;;6157434;23;20194;-92
2022/08/14 09:03:23;;;;;;;11.87;8.80;;;26.00;99.90;;;;;;6157842;23;20487;-93
2022/08/14 09:05:58;;;;;;;14.43;10.43;;;26.10;99.90;;;;;;6158409;23;20495;-93
2022/08/14 09:08:27;;;;;;;9.37;8.27;;;26.20;99.90;;;;;;6160674;23;20377;-94
2022/08/14 09:10:54;;;;;;;8.60;7.60;;;26.20;99.90;;;;;;6158047;23;20433;-92
2022/08/14 09:13:24;;;;;;;9.80;8.80;;;26.30;99.90;;;;;;6158831;23;20385;-93
2022/08/14 09:15:50;;;;;;;13.47;8.70;;;26.40;99.90;;;;;;6157666;23;20835;-93
2022/08/14 09:18:18;;;;;;;11.43;8.30;;;26.40;99.90;;;;;;6157651;23;20381;-93
2022/08/14 09:20:47;;;;;;;11.77;9.00;;;26.50;99.90;;;;;;6157857;23;20659;-93
2022/08/14 09:23:14;;;;;;;12.57;9.33;;;26.50;99.90;;;;;;6159809;23;20380;-93
2022/08/14 09:25:43;;;;;;;11.10;8.97;;;26.60;99.90;;;;;;6158249;23;20424;-93
2022/08/14 09:28:10;;;;;;;14.30;9.20;;;26.60;99.90;;;;;;6158737;23;20383;-93
2022/08/14 09:30:40;;;;;;;13.50;9.33;;;26.60;99.90;;;;;;6158205;23;20901;-93
2022/08/14 09:33:30;;;;;;;9.70;8.70;;;26.60;99.90;;;;;;6158245;23;20381;-93
2022/08/14 09:36:11;;;;;;;13.23;10.10;;;26.70;99.90;;;;;;6161328;23;20828;-93
2022/08/14 09:38:48;;;;;;;9.80;8.77;;;26.70;99.90;;;;;;6160060;23;20396;-93
2022/08/14 09:41:33;;;;;;;10.73;8.80;;;26.70;99.90;;;;;;6158607;23;20493;-93
2022/08/14 09:44:40;;;;;;;9.87;8.53;;;26.70;99.90;;;;;;6158256;23;20393;-94
2022/08/14 09:47:06;;;;;;;11.93;8.83;;;26.60;99.90;;;;;;6158423;23;20405;-94
2022/08/14 09:49:34;;;;;;;10.03;8.97;;;26.60;99.90;;;;;;6157822;23;20487;-92
2022/08/14 09:52:19;;;;;;;12.67;8.93;;;26.60;99.90;;;;;;6156176;23;20173;-93
2022/08/14 09:54:47;;;;;;;14.10;10.17;;;26.60;99.90;;;;;;6155689;23;20511;-93
2022/08/14 09:57:29;;;;;;;10.70;7.87;;;26.70;99.90;;;;;;6154270;23;20409;-93
2022/08/14 09:59:55;;;;;;;11.50;8.57;;;26.70;99.90;;;;;;6153842;23;20420;-93
2022/08/14 10:02:26;;;;;;;12.70;10.30;;;26.70;99.90;;;;;;6155365;23;20712;-93
2022/08/14 10:05:09;;;;;;;10.47;8.80;;;26.70;99.90;;;;;;6154580;23;20409;-93
2022/08/14 10:07:50;;;;;;;10.53;8.20;;;26.70;99.90;;;;;;6156335;23;20444;-93
2022/08/14 10:10:39;;;;;;;14.63;9.43;;;26.70;99.90;;;;;;6158467;23;20488;-93
2022/08/14 10:13:08;;;;;;;11.73;9.10;;;26.70;99.90;;;;;;6158081;23;20714;-93
2022/08/14 10:15:45;;;;;;;11.27;9.07;;;26.70;99.90;;;;;;6155495;23;20834;-93
2022/08/14 10:18:14;;;;;;;13.00;10.00;;;26.80;99.90;;;;;;6158660;23;20859;-93
2022/08/14 10:21:01;;;;;;;10.40;8.33;;;26.80;99.90;;;;;;6157372;23;20988;-93
2022/08/14 10:23:39;;;;;;;10.80;8.10;;;26.90;99.90;;;;;;6169833;23;20404;-94
2022/08/14 10:26:06;;;;;;;10.70;8.77;;;26.90;99.90;;;;;;6170437;23;20427;-93
2022/08/14 10:28:47;;;;;;;10.57;8.67;;;27.00;99.90;;;;;;6157311;23;20921;-93
2022/08/14 10:31:28;;;;;;;10.63;8.73;;;27.10;99.90;;;;;;6158016;23;20841;-92
2022/08/14 10:34:10;;;;;;;15.70;8.30;;;27.20;99.90;;;;;;6158883;23;20387;-92
2022/08/14 10:36:38;;;;;;;8.23;7.33;;;27.20;99.90;;;;;;6161071;23;20452;-94
2022/08/14 10:39:06;;;;;;;10.50;8.20;;;27.30;99.90;;;;;;6159697;23;20383;-93
2022/08/14 10:41:40;;;;;;;10.57;7.60;;;27.40;99.90;;;;;;6159375;23;20398;-93
2022/08/14 10:44:09;;;;;;;9.33;7.80;;;27.50;99.90;;;;;;6158902;23;20747;-94
2022/08/14 10:46:46;;;;;;;9.90;8.30;;;27.60;99.90;;;;;;6159928;23;20805;-93
2022/08/14 10:49:24;;;;;;;8.87;7.27;;;27.70;99.90;;;;;;6159564;23;20444;-93
2022/08/14 10:52:07;;;;;;;10.73;7.20;;;27.80;99.90;;;;;;6159257;23;20417;-93
2022/08/14 10:54:44;;;;;;;8.67;7.87;;;27.80;99.90;;;;;;6159613;23;20788;-93
2022/08/14 10:57:19;;;;;;;10.30;7.53;;;27.90;99.90;;;;;;6159314;23;20393;-94
2022/08/14 10:59:48;;;;;;;9.40;7.10;;;28.00;99.90;;;;;;6170642;23;20421;-93
2022/08/14 11:02:28;;;;;;;9.27;7.30;;;28.10;99.90;;;;;;6158770;23;20394;-93
2022/08/14 11:05:03;;;;;;;10.10;8.33;;;28.10;99.90;;;;;;6156682;23;20403;-93
2022/08/14 11:07:30;;;;;;;12.17;8.33;;;28.20;99.90;;;;;;6156635;23;20450;-93
2022/08/14 11:10:03;;;;;;;8.87;7.70;;;28.30;99.90;;;;;;6157893;23;20440;-93
2022/08/14 11:12:45;;;;;;;9.23;7.50;;;28.30;99.90;;;;;;6156828;23;20454;-93
2022/08/14 11:15:11;;;;;;;9.10;8.13;;;28.40;99.90;;;;;;6156660;23;20487;-93
2022/08/14 11:17:40;;;;;;;10.40;8.20;;;28.40;99.90;;;;;;6160513;23;20461;-94
2022/08/14 11:20:09;;;;;;;9.83;7.80;;;28.50;99.90;;;;;;6157255;23;20527;-93
2022/08/14 11:22:38;;;;;;;7.43;6.73;;;28.50;99.90;;;;;;6156851;23;20410;-94
2022/08/14 11:25:06;;;;;;;11.10;7.00;;;28.50;99.90;;;;;;6157009;23;20409;-93
2022/08/14 11:27:33;;;;;;;11.27;7.20;;;28.50;99.90;;;;;;6157973;23;20390;-93
2022/08/14 11:30:06;;;;;;;8.17;6.93;;;28.60;98.90;;;;;;6157815;23;20494;-93
2022/08/14 11:32:32;;;;;;;8.97;6.57;;;28.70;98.40;;;;;;6158617;23;20427;-92
2022/08/14 11:35:00;;;;;;;11.20;7.40;;;28.70;98.70;;;;;;6161999;23;20497;-94
2022/08/14 11:37:32;;;;;;;8.33;7.37;;;28.80;98.00;;;;;;6156460;23;20160;-93
2022/08/14 11:39:59;;;;;;;8.03;7.10;;;28.80;97.30;;;;;;6156463;23;20415;-93
2022/08/14 11:42:27;;;;;;;10.20;6.97;;;28.90;97.50;;;;;;6156763;23;20408;-93
2022/08/14 11:44:56;;;;;;;9.40;7.30;;;28.90;97.60;;;;;;6156322;23;20803;-93
2022/08/14 11:47:22;;;;;;;9.10;7.30;;;29.00;97.70;;;;;;6156873;23;20474;-93
2022/08/14 11:49:48;;;;;;;8.70;6.70;;;29.00;97.70;;;;;;6157017;23;20411;-93
2022/08/14 11:52:18;;;;;;;11.73;6.97;;;29.10;97.40;;;;;;6157205;23;20388;-93
2022/08/14 11:54:55;;;;;;;20.23;7.50;;;29.10;96.70;;;;;;6157884;23;20516;-93
2022/08/14 11:57:21;;;;;;;7.90;6.20;;;29.20;96.90;;;;;;6157688;23;20416;-93
2022/08/14 11:59:46;;;;;;;7.50;6.63;;;29.20;96.90;;;;;;6157802;23;20438;-93
2022/08/14 12:02:14;;;;;;;9.67;7.80;;;29.20;96.90;;;;;;6156823;23;20157;-93
2022/08/14 12:04:50;;;;;;;8.53;7.30;;;29.30;96.90;;;;;;6156981;23;20188;-93
2022/08/14 12:07:17;;;;;;;9.93;7.70;;;29.30;96.70;;;;;;6156821;23;20444;-93
2022/08/14 12:09:45;;;;;;;7.60;6.80;;;29.40;96.70;;;;;;6157046;23;20465;-93
2022/08/14 12:12:14;;;;;;;7.30;6.60;;;29.40;96.60;;;;;;6158744;23;20378;-93
2022/08/14 12:14:55;;;;;;;9.10;6.90;;;29.40;96.40;;;;;;6157250;23;20870;-93
2022/08/14 12:17:23;;;;;;;7.67;6.97;;;29.40;96.10;;;;;;6157250;23;20469;-94
2022/08/14 12:19:58;;;;;;;9.13;8.00;;;29.50;95.80;;;;;;6157868;23;20407;-93
2022/08/14 12:22:36;;;;;;;13.30;8.03;;;29.40;95.20;;;;;;6157798;23;20401;-93
2022/08/14 12:25:04;;;;;;;8.83;7.23;;;29.50;95.40;;;;;;6157419;23;20416;-93
2022/08/14 12:27:40;;;;;;;8.73;7.30;;;29.50;95.40;;;;;;6159756;23;20371;-94
2022/08/14 12:30:06;;;;;;;7.10;6.40;;;29.60;95.50;;;;;;6159687;23;20411;-92
2022/08/14 12:32:42;;;;;;;8.83;7.93;;;29.60;95.30;;;;;;6160188;23;20715;-92
2022/08/14 12:35:09;;;;;;;10.00;7.50;;;29.60;95.20;;;;;;6160081;23;20444;-93
2022/08/14 12:37:35;;;;;;;8.23;7.43;;;29.60;95.20;;;;;;6161387;23;20390;-94
2022/08/14 12:40:11;;;;;;;8.13;7.13;;;29.60;94.80;;;;;;6164829;23;20418;-93
2022/08/14 12:42:38;;;;;;;7.60;6.73;;;29.70;94.50;;;;;;6172676;23;20391;-93
2022/08/14 12:45:06;;;;;;;9.27;8.00;;;29.70;94.40;;;;;;6158715;23;20495;-93
2022/08/14 12:47:32;;;;;;;7.83;7.03;;;29.80;94.20;;;;;;6158305;23;20394;-94
2022/08/14 12:49:58;;;;;;;7.50;6.70;;;29.70;94.40;;;;;;6159299;23;20802;-93
2022/08/14 12:52:34;;;;;;;9.50;6.93;;;29.80;94.20;;;;;;6159279;23;20188;-94
2022/08/14 12:55:04;;;;;;;7.90;7.10;;;29.80;94.30;;;;;;6161911;23;20446;-94
2022/08/14 12:57:41;;;;;;;7.03;6.33;;;29.80;94.20;;;;;;6160384;23;20399;-94
2022/08/14 13:00:16;;;;;;;9.70;6.57;;;29.80;94.00;;;;;;6161073;23;20403;-94
2022/08/14 13:02:49;;;;;;;7.50;6.70;;;29.90;93.90;;;;;;6159129;23;20394;-94
2022/08/14 13:05:15;;;;;;;7.97;6.33;;;29.90;93.60;;;;;;6158490;23;20904;-93
2022/08/14 13:07:42;;;;;;;6.80;5.97;;;29.90;93.60;;;;;;6158391;23;20433;-94